createdAt,value
2022-09-21T07:43:07.936Z,354
2022-09-21T07:44:08.045Z,360
2022-09-21T07:45:08.133Z,387
2022-09-21T07:46:07.999Z,392
2022-09-21T07:47:07.928Z,396
2022-09-21T07:48:08.115Z,397
2022-09-21T07:49:07.743Z,395
2022-09-21T07:50:07.707Z,379
2022-09-21T07:51:07.557Z,370
2022-09-21T07:52:10.739Z,380
2022-09-21T07:53:07.868Z,375
2022-09-21T07:54:07.809Z,369
2022-09-21T07:56:07.495Z,373
2022-09-21T07:57:07.335Z,377
2022-09-21T07:58:07.961Z,372
2022-09-21T07:59:07.753Z,374
2022-09-21T08:01:10.295Z,365
2022-09-21T08:02:07.323Z,363
2022-09-21T08:03:08.312Z,355
2022-09-21T08:04:07.913Z,349
2022-09-21T08:06:07.537Z,359
2022-09-21T08:07:07.478Z,355
2022-09-21T08:09:07.827Z,340
2022-09-21T08:10:08.153Z,345
2022-09-21T08:11:08.235Z,346
2022-09-21T08:12:08.157Z,353
2022-09-21T08:13:08.163Z,349
2022-09-21T08:15:16.524Z,351
2022-09-21T08:16:07.656Z,348
2022-09-21T08:17:07.518Z,346
2022-09-21T08:18:07.482Z,351
2022-09-21T08:19:08.366Z,363
2022-09-21T08:20:08.443Z,354
2022-09-21T08:21:07.577Z,363
2022-09-21T08:22:07.655Z,359
2022-09-21T08:23:07.593Z,357
2022-09-21T08:24:07.882Z,346
2022-09-21T08:25:08.002Z,348
2022-09-21T08:26:07.870Z,352
2022-09-21T08:28:10.037Z,373
2022-09-21T08:29:07.979Z,375
2022-09-21T08:30:07.967Z,361
2022-09-21T08:32:07.874Z,356
2022-09-21T08:33:08.361Z,355
2022-09-21T08:34:07.662Z,351
2022-09-21T08:35:07.567Z,364
2022-09-21T08:36:07.642Z,368
2022-09-21T08:37:07.498Z,359
2022-09-21T08:38:08.105Z,357
2022-09-21T08:39:08.192Z,349
2022-09-21T08:40:08.281Z,347
2022-09-21T08:41:07.414Z,356
2022-09-21T08:42:07.483Z,351
2022-09-21T08:43:07.996Z,343
2022-09-21T08:44:07.874Z,352
2022-09-21T08:45:07.911Z,344
2022-09-21T08:46:07.910Z,346
2022-09-21T08:47:07.884Z,338
2022-09-21T08:48:07.565Z,340
2022-09-21T08:49:07.467Z,348
2022-09-21T08:50:08.172Z,342
2022-09-21T08:51:07.789Z,343
2022-09-21T08:52:07.573Z,344
2022-09-21T08:53:07.753Z,338
2022-09-21T08:54:07.576Z,337
2022-09-21T08:55:07.394Z,345
2022-09-21T08:56:07.826Z,346
2022-09-21T08:57:07.505Z,351
2022-09-21T08:58:07.139Z,348
2022-09-21T08:59:07.728Z,347
2022-09-21T09:01:07.791Z,344
2022-09-21T09:02:07.907Z,348
2022-09-21T09:03:07.672Z,344
2022-09-21T09:04:07.804Z,347
2022-09-21T09:05:07.420Z,349
2022-09-21T09:06:08.071Z,325
2022-09-21T09:07:07.479Z,336
2022-09-21T09:08:08.297Z,339
2022-09-21T09:09:08.355Z,345
2022-09-21T09:10:07.965Z,335
2022-09-21T09:11:07.619Z,332
2022-09-21T09:12:10.900Z,343
2022-09-21T09:13:07.924Z,348
2022-09-21T09:14:07.642Z,350
2022-09-21T09:15:07.539Z,352
2022-09-21T09:16:07.640Z,343
2022-09-21T09:17:07.945Z,331
2022-09-21T09:18:08.023Z,340
2022-09-21T09:19:07.807Z,343
2022-09-21T09:20:07.809Z,331
2022-09-21T09:21:07.893Z,334
2022-09-21T09:22:07.970Z,330
2022-09-21T09:23:08.045Z,338
2022-09-21T09:24:08.645Z,342
2022-09-21T09:25:07.966Z,340
2022-09-21T09:27:07.561Z,347
2022-09-21T09:28:07.316Z,334
2022-09-21T09:29:08.189Z,333
2022-09-21T09:30:27.304Z,328
2022-09-21T09:31:07.918Z,326
2022-09-21T09:32:08.169Z,333
2022-09-21T09:33:08.083Z,334
2022-09-21T09:35:07.776Z,335
2022-09-21T09:36:07.930Z,337
2022-09-21T09:37:07.908Z,330
2022-09-21T09:38:07.794Z,323
2022-09-21T09:39:08.036Z,329
2022-09-21T09:41:08.259Z,331
2022-09-21T09:42:08.172Z,332
2022-09-21T09:43:07.792Z,344
2022-09-21T09:44:07.781Z,346
2022-09-21T09:45:07.794Z,342
2022-09-21T09:47:08.055Z,336
2022-09-21T09:48:07.919Z,332
2022-09-21T09:49:07.780Z,337
2022-09-21T09:50:07.650Z,338
2022-09-21T09:52:07.994Z,326
2022-09-21T09:53:08.308Z,321
2022-09-21T09:54:10.278Z,330
2022-09-21T09:55:07.917Z,340
2022-09-21T09:56:07.889Z,331
2022-09-21T09:58:07.743Z,326
2022-09-21T09:59:07.506Z,327
2022-09-21T10:00:08.445Z,329
2022-09-21T10:01:08.076Z,327
2022-09-21T10:02:08.127Z,340
2022-09-21T10:03:07.182Z,343
2022-09-21T10:05:08.140Z,336
2022-09-21T10:06:08.307Z,338
2022-09-21T10:07:07.768Z,329
2022-09-21T10:08:07.440Z,314
2022-09-21T10:09:08.186Z,337
2022-09-21T10:10:07.994Z,339
2022-09-21T10:11:07.769Z,334
2022-09-21T10:12:10.396Z,340
2022-09-21T10:13:07.349Z,342
2022-09-21T10:14:08.091Z,333
2022-09-21T10:16:08.129Z,346
2022-09-21T10:17:07.956Z,348
2022-09-21T10:19:07.598Z,339
2022-09-21T10:20:07.634Z,333
2022-09-21T10:21:07.752Z,339
2022-09-21T10:23:08.276Z,336
2022-09-21T10:24:08.205Z,326
2022-09-21T10:25:07.842Z,331
2022-09-21T10:26:07.695Z,327
2022-09-21T10:27:07.648Z,335
2022-09-21T10:28:07.700Z,332
2022-09-21T10:29:07.811Z,333
2022-09-21T10:31:07.879Z,335
2022-09-21T10:32:12.381Z,334
2022-09-21T10:33:07.686Z,327
2022-09-21T10:34:07.812Z,326
2022-09-21T10:35:08.015Z,325
2022-09-21T10:36:08.211Z,320
2022-09-21T10:37:08.169Z,318
2022-09-21T10:38:07.758Z,316
2022-09-21T10:39:07.706Z,326
2022-09-21T10:40:07.662Z,324
2022-09-21T10:41:07.774Z,323
2022-09-21T10:42:07.894Z,324
2022-09-21T10:43:07.837Z,321
2022-09-21T10:44:08.247Z,341
2022-09-21T10:45:08.159Z,327
2022-09-21T10:47:07.788Z,318
2022-09-21T10:48:07.716Z,315
2022-09-21T10:49:08.026Z,327
2022-09-21T10:50:08.198Z,329
2022-09-21T10:51:07.803Z,318
2022-09-21T10:52:07.718Z,313
2022-09-21T10:53:07.356Z,321
2022-09-21T10:54:08.006Z,325
2022-09-21T10:55:08.158Z,319
2022-09-21T10:57:07.564Z,318
2022-09-21T10:59:07.509Z,308
2022-09-21T11:00:08.963Z,314
2022-09-21T11:01:08.117Z,307
2022-09-21T11:02:07.989Z,311
2022-09-21T11:03:08.352Z,322
2022-09-21T11:04:07.489Z,323
2022-09-21T11:05:07.526Z,318
2022-09-21T11:06:07.276Z,324
2022-09-21T11:07:07.713Z,331
2022-09-21T11:08:07.493Z,333
2022-09-21T11:09:12.322Z,327
2022-09-21T11:10:07.852Z,332
2022-09-21T11:11:12.979Z,330
2022-09-21T11:12:07.873Z,338
2022-09-21T11:13:12.748Z,333
2022-09-21T11:14:07.876Z,316
2022-09-21T11:15:12.861Z,317
2022-09-21T11:16:07.910Z,313
2022-09-21T11:17:13.068Z,322
2022-09-21T11:19:07.979Z,320
2022-09-21T11:20:07.623Z,324
2022-09-21T11:21:07.496Z,322
2022-09-21T11:23:08.090Z,334
2022-09-21T11:24:08.010Z,331
2022-09-21T11:25:07.858Z,322
2022-09-21T11:27:08.152Z,325
2022-09-21T11:29:07.481Z,310
2022-09-21T11:30:08.165Z,308
2022-09-21T11:31:21.997Z,317
2022-09-21T11:32:08.156Z,324
2022-09-21T11:33:08.161Z,323
2022-09-21T11:34:07.750Z,327
2022-09-21T11:35:07.597Z,321
2022-09-21T11:36:07.827Z,315
2022-09-21T11:37:07.631Z,322
2022-09-21T11:38:07.656Z,324
2022-09-21T11:39:07.560Z,333
2022-09-21T11:40:07.825Z,322
2022-09-21T11:42:07.158Z,335
2022-09-21T11:43:08.218Z,326
2022-09-21T11:44:11.010Z,324
2022-09-21T11:45:07.512Z,322
2022-09-21T11:46:07.507Z,317
2022-09-21T11:47:07.538Z,325
2022-09-21T11:49:08.204Z,319
2022-09-21T11:51:07.925Z,317
2022-09-21T11:52:07.884Z,326
2022-09-21T11:53:07.653Z,331
2022-09-21T11:54:07.389Z,329
2022-09-21T11:56:07.752Z,327
2022-09-21T11:57:07.335Z,320
2022-09-21T11:58:07.880Z,324
2022-09-21T11:59:07.572Z,322
2022-09-21T12:00:08.874Z,315
2022-09-21T12:01:07.777Z,325
2022-09-21T12:03:07.961Z,327
2022-09-21T12:04:07.833Z,320
2022-09-21T12:05:07.632Z,318
2022-09-21T12:09:07.323Z,321
2022-09-21T12:10:10.935Z,323
2022-09-21T12:11:07.906Z,324
2022-09-21T12:12:07.711Z,331
2022-09-21T12:13:07.328Z,329
2022-09-21T12:14:07.949Z,325
2022-09-21T12:15:07.789Z,324
2022-09-21T12:17:08.310Z,321
2022-09-21T12:18:07.948Z,308
2022-09-21T12:19:07.398Z,310
2022-09-21T12:20:07.869Z,313
2022-09-21T12:21:07.717Z,311
2022-09-21T12:22:07.475Z,313
2022-09-21T12:23:08.000Z,318
2022-09-21T12:24:07.851Z,312
2022-09-21T12:25:07.553Z,319
2022-09-21T12:26:07.199Z,305
2022-09-21T12:27:07.853Z,307
2022-09-21T12:28:07.545Z,326
2022-09-21T12:30:08.233Z,335
2022-09-21T12:31:07.990Z,321
2022-09-21T12:32:07.900Z,303
2022-09-21T12:34:07.376Z,306
2022-09-21T12:35:08.237Z,315
2022-09-21T12:36:07.939Z,307
2022-09-21T12:38:07.938Z,315
2022-09-21T12:39:07.426Z,323
2022-09-21T12:40:08.237Z,335
2022-09-21T12:41:08.353Z,340
2022-09-21T12:42:07.446Z,330
2022-09-21T12:43:08.910Z,315
2022-09-21T12:44:07.326Z,321
2022-09-21T12:45:08.400Z,333
2022-09-21T12:46:07.420Z,340
2022-09-21T12:47:08.194Z,318
2022-09-21T12:49:08.115Z,324
2022-09-21T12:50:08.124Z,313
2022-09-21T12:51:08.186Z,317
2022-09-21T12:53:07.914Z,309
2022-09-21T12:54:07.614Z,322
2022-09-21T12:56:09.925Z,310
2022-09-21T12:57:23.539Z,333
2022-09-21T12:59:07.914Z,310
2022-09-21T13:00:08.256Z,317
2022-09-21T13:02:08.163Z,330
2022-09-21T13:03:09.939Z,332
2022-09-21T13:04:08.036Z,333
2022-09-21T13:05:07.971Z,330
2022-09-21T13:06:07.718Z,332
2022-09-21T13:07:07.467Z,330
2022-09-21T13:09:10.044Z,314
2022-09-21T13:11:07.355Z,322
2022-09-21T13:12:07.929Z,327
2022-09-21T13:13:07.475Z,329
2022-09-21T13:14:07.978Z,327
2022-09-21T13:15:08.054Z,333
2022-09-21T13:16:08.019Z,347
2022-09-21T13:18:08.088Z,339
2022-09-21T13:19:08.030Z,325
2022-09-21T13:20:08.034Z,315
2022-09-21T13:21:07.709Z,323
2022-09-21T13:22:07.511Z,324
2022-09-21T13:25:08.261Z,323
2022-09-21T13:26:08.047Z,326
2022-09-21T13:27:07.542Z,328
2022-09-21T13:29:07.831Z,321
2022-09-21T13:30:07.867Z,309
2022-09-21T13:31:23.672Z,313
2022-09-21T13:32:08.054Z,323
2022-09-21T13:34:08.077Z,315
2022-09-21T13:35:08.028Z,324
2022-09-21T13:36:08.186Z,319
2022-09-21T13:37:08.052Z,326
2022-09-21T13:38:08.121Z,332
2022-09-21T13:39:08.264Z,326
2022-09-21T13:41:11.256Z,331
2022-09-21T13:42:12.977Z,318
2022-09-21T13:43:08.020Z,300
2022-09-21T13:44:12.810Z,316
2022-09-21T13:45:08.203Z,322
2022-09-21T13:46:08.127Z,325
2022-09-21T13:47:08.255Z,324
2022-09-21T13:48:08.269Z,330
2022-09-21T13:50:07.820Z,327
2022-09-21T13:51:08.076Z,316
2022-09-21T13:52:07.550Z,324
2022-09-21T13:53:07.696Z,323
2022-09-21T13:54:07.795Z,331
2022-09-21T13:55:07.335Z,321
2022-09-21T13:56:08.356Z,322
2022-09-21T13:57:09.350Z,336
2022-09-21T13:58:07.292Z,332
2022-09-21T13:59:08.309Z,323
2022-09-21T14:00:08.328Z,321
2022-09-21T14:01:09.890Z,322
2022-09-21T14:03:08.027Z,323
2022-09-21T14:05:08.308Z,332
2022-09-21T14:06:08.220Z,335
2022-09-21T14:08:07.994Z,336
2022-09-21T14:09:07.984Z,317
2022-09-21T14:10:08.211Z,321
2022-09-21T14:13:08.293Z,317
2022-09-21T14:14:07.991Z,319
2022-09-21T14:16:08.007Z,318
2022-09-21T14:17:08.192Z,312
2022-09-21T14:19:08.393Z,324
2022-09-21T14:21:08.273Z,325
2022-09-21T14:22:07.315Z,322
2022-09-21T14:23:07.387Z,316
2022-09-21T14:24:08.103Z,326
2022-09-21T14:26:07.575Z,310
2022-09-21T14:27:08.286Z,311
2022-09-21T14:28:07.531Z,320
2022-09-21T14:29:07.355Z,328
2022-09-21T14:30:08.445Z,327
2022-09-21T14:31:07.365Z,333
2022-09-21T14:32:07.364Z,326
2022-09-21T14:33:07.534Z,334
2022-09-21T14:35:07.708Z,322
2022-09-21T14:36:07.797Z,335
2022-09-21T14:37:08.016Z,332
2022-09-21T14:38:07.954Z,329
2022-09-21T14:39:07.870Z,331
2022-09-21T14:40:08.283Z,319
2022-09-21T14:41:07.600Z,318
2022-09-21T14:42:07.563Z,325
2022-09-21T14:43:07.184Z,333
2022-09-21T14:44:07.769Z,312
2022-09-21T14:46:07.942Z,315
2022-09-21T14:47:08.512Z,316
2022-09-21T14:48:08.055Z,312
2022-09-21T14:49:07.963Z,314
2022-09-21T14:50:11.768Z,308
2022-09-21T14:52:16.475Z,316
2022-09-21T14:53:07.757Z,313
2022-09-21T14:56:07.989Z,320
2022-09-21T14:57:08.445Z,323
2022-09-21T14:58:07.355Z,329
2022-09-21T14:59:08.095Z,340
2022-09-21T15:00:09.273Z,333
2022-09-21T15:01:07.849Z,337
2022-09-21T15:02:08.067Z,331
2022-09-21T15:03:08.252Z,323
2022-09-21T15:04:08.263Z,314
2022-09-21T15:05:07.418Z,321
2022-09-21T15:06:07.365Z,327
2022-09-21T15:08:07.556Z,329
2022-09-21T15:09:07.579Z,333
2022-09-21T15:10:07.664Z,319
2022-09-21T15:11:07.803Z,320
2022-09-21T15:12:07.935Z,322
2022-09-21T15:13:07.987Z,329
2022-09-21T15:14:07.763Z,330
2022-09-21T15:15:07.996Z,321
2022-09-21T15:16:08.105Z,330
2022-09-21T15:17:08.497Z,335
2022-09-21T15:18:07.438Z,340
2022-09-21T15:20:08.256Z,342
2022-09-21T15:21:08.383Z,344
2022-09-21T15:22:07.609Z,343
2022-09-21T15:23:07.704Z,342
2022-09-21T15:24:07.960Z,333
2022-09-21T15:25:08.081Z,337
2022-09-21T15:26:08.163Z,328
2022-09-21T15:27:08.151Z,331
2022-09-21T15:28:08.124Z,336
2022-09-21T15:30:07.756Z,324
2022-09-21T15:31:08.075Z,335
2022-09-21T15:33:07.496Z,332
2022-09-21T15:35:08.279Z,326
2022-09-21T15:36:07.433Z,327
2022-09-21T15:37:08.247Z,331
2022-09-21T15:39:07.673Z,332
2022-09-21T15:41:11.599Z,328
2022-09-21T15:42:07.973Z,344
2022-09-21T15:44:07.668Z,335
2022-09-21T15:45:07.981Z,336
2022-09-21T15:47:07.704Z,337
2022-09-21T15:48:07.632Z,335
2022-09-21T15:49:07.659Z,333
2022-09-21T15:50:08.017Z,335
2022-09-21T15:51:08.035Z,338
2022-09-21T15:53:07.983Z,325
2022-09-21T15:54:07.899Z,324
2022-09-21T15:55:07.740Z,331
2022-09-21T15:56:07.944Z,323
2022-09-21T15:57:08.563Z,319
2022-09-21T15:58:07.642Z,333
2022-09-21T16:00:08.559Z,326
2022-09-21T16:01:08.205Z,325
2022-09-21T16:03:13.256Z,329
2022-09-21T16:04:08.305Z,331
2022-09-21T16:05:12.529Z,317
2022-09-21T16:06:07.819Z,327
2022-09-21T16:08:08.075Z,321
2022-09-21T16:09:13.053Z,322
2022-09-21T16:10:08.441Z,327
2022-09-21T16:11:07.932Z,332
2022-09-21T16:13:08.283Z,333
2022-09-21T16:14:07.823Z,317
2022-09-21T16:15:08.112Z,323
2022-09-21T16:16:08.260Z,338
2022-09-21T16:18:08.153Z,336
2022-09-21T16:19:08.140Z,331
2022-09-21T16:20:08.328Z,308
2022-09-21T16:21:08.052Z,318
2022-09-21T16:23:08.258Z,329
2022-09-21T16:24:08.520Z,322
2022-09-21T16:25:07.272Z,325
2022-09-21T16:26:08.067Z,339
2022-09-21T16:28:08.187Z,340
2022-09-21T16:29:22.188Z,346
2022-09-21T16:30:08.637Z,335
2022-09-21T16:31:21.932Z,338
2022-09-21T16:33:21.576Z,332
2022-09-21T16:34:07.659Z,337
2022-09-21T16:35:07.918Z,327
2022-09-21T16:37:07.821Z,320
2022-09-21T16:38:09.950Z,315
2022-09-21T16:39:11.577Z,317
2022-09-21T16:40:07.941Z,322
2022-09-21T16:41:07.913Z,333
2022-09-21T16:43:07.651Z,337
2022-09-21T16:44:07.818Z,328
2022-09-21T16:45:08.168Z,315
2022-09-21T16:47:08.268Z,327
2022-09-21T16:49:08.472Z,324
2022-09-21T16:50:08.194Z,322
2022-09-21T16:51:08.340Z,317
2022-09-21T16:52:08.323Z,316
2022-09-21T16:54:07.603Z,315
2022-09-21T16:55:07.611Z,321
2022-09-21T16:57:07.960Z,324
2022-09-21T16:58:07.861Z,317
2022-09-21T17:00:09.072Z,333
2022-09-21T17:01:08.151Z,334
2022-09-21T17:02:08.206Z,327
2022-09-21T17:03:08.415Z,328
2022-09-21T17:05:08.491Z,326
2022-09-21T17:06:07.430Z,334
2022-09-21T17:07:08.196Z,338
2022-09-21T17:08:08.239Z,348
2022-09-21T17:10:07.365Z,347
2022-09-21T17:11:07.745Z,333
2022-09-21T17:12:07.678Z,335
2022-09-21T17:13:07.456Z,333
2022-09-21T17:14:07.674Z,334
2022-09-21T17:15:07.970Z,329
2022-09-21T17:16:08.246Z,326
2022-09-21T17:17:07.883Z,315
2022-09-21T17:18:08.427Z,317
2022-09-21T17:20:07.773Z,328
2022-09-21T17:22:07.945Z,326
2022-09-21T17:23:08.163Z,332
2022-09-21T17:24:08.569Z,333
2022-09-21T17:25:08.321Z,324
2022-09-21T17:26:07.766Z,331
2022-09-21T17:27:07.867Z,329
2022-09-21T17:28:07.663Z,330
2022-09-21T17:30:07.743Z,331
2022-09-21T17:31:08.266Z,321
2022-09-21T17:33:08.209Z,342
2022-09-21T17:34:07.466Z,349
2022-09-21T17:35:07.500Z,336
2022-09-21T17:36:07.413Z,339
2022-09-21T17:37:08.096Z,338
2022-09-21T17:38:12.461Z,332
2022-09-21T17:39:07.604Z,330
2022-09-21T17:40:10.897Z,340
2022-09-21T17:42:08.418Z,339
2022-09-21T17:43:07.565Z,343
2022-09-21T17:44:08.052Z,339
2022-09-21T17:45:08.726Z,349
2022-09-21T17:46:08.431Z,339
2022-09-21T17:48:08.169Z,347
2022-09-21T17:49:08.067Z,341
2022-09-21T17:50:08.418Z,344
2022-09-21T17:51:07.632Z,348
2022-09-21T17:52:07.755Z,340
2022-09-21T17:55:08.353Z,330
2022-09-21T17:56:08.637Z,321
2022-09-21T17:57:08.098Z,330
2022-09-21T17:59:07.398Z,334
2022-09-21T18:00:09.098Z,338
2022-09-21T18:01:07.873Z,337
2022-09-21T18:02:10.779Z,350
2022-09-21T18:03:08.314Z,344
2022-09-21T18:05:07.625Z,341
2022-09-21T18:08:07.560Z,356
2022-09-21T18:09:09.045Z,358
2022-09-21T18:10:08.219Z,354
2022-09-21T18:11:08.226Z,351
2022-09-21T18:12:08.248Z,355
2022-09-21T18:13:08.261Z,350
2022-09-21T18:14:07.718Z,345
2022-09-21T18:16:07.595Z,344
2022-09-21T18:17:07.726Z,350
2022-09-21T18:18:07.755Z,355
2022-09-21T18:19:07.337Z,358
2022-09-21T18:21:08.155Z,364
2022-09-21T18:22:07.777Z,363
2022-09-21T18:24:07.831Z,375
2022-09-21T18:26:07.766Z,373
2022-09-21T18:27:07.688Z,375
2022-09-21T18:28:07.935Z,367
2022-09-21T18:29:28.663Z,361
2022-09-21T18:30:08.145Z,356
2022-09-21T18:31:08.149Z,357
2022-09-21T18:32:08.559Z,364
2022-09-21T18:34:07.704Z,366
2022-09-21T18:36:07.876Z,375
2022-09-21T18:37:12.547Z,380
2022-09-21T18:38:07.947Z,370
2022-09-21T18:39:08.009Z,366
2022-09-21T18:40:16.221Z,362
2022-09-21T18:41:08.258Z,363
2022-09-21T18:42:08.251Z,370
2022-09-21T18:44:15.688Z,369
2022-09-21T18:45:08.218Z,366
2022-09-21T18:46:21.653Z,376
2022-09-21T18:48:22.008Z,369
2022-09-21T18:49:07.859Z,372
2022-09-21T18:51:07.874Z,368
2022-09-21T18:52:07.664Z,367
2022-09-21T18:54:21.549Z,366
2022-09-21T18:55:07.490Z,365
2022-09-21T18:57:07.827Z,373
2022-09-21T18:58:07.848Z,364
2022-09-21T18:59:07.740Z,371
2022-09-21T19:00:08.450Z,366
2022-09-21T19:01:08.250Z,372
2022-09-21T19:02:07.881Z,382
2022-09-21T19:03:18.332Z,381
2022-09-21T19:04:08.202Z,375
2022-09-21T19:05:08.423Z,380
2022-09-21T19:06:07.778Z,382
2022-09-21T19:07:07.929Z,381
2022-09-21T19:09:07.885Z,371
2022-09-21T19:10:08.094Z,372
2022-09-21T19:11:08.287Z,374
2022-09-21T19:12:08.170Z,385
2022-09-21T19:13:07.404Z,380
2022-09-21T19:14:07.571Z,368
2022-09-21T19:15:11.564Z,374
2022-09-21T19:16:07.759Z,378
2022-09-21T19:17:07.725Z,372
2022-09-21T19:18:08.116Z,374
2022-09-21T19:19:07.866Z,375
2022-09-21T19:20:07.839Z,374
2022-09-21T19:22:07.977Z,385
2022-09-21T19:23:07.880Z,375
2022-09-21T19:25:08.025Z,374
2022-09-21T19:27:07.550Z,378
2022-09-21T19:28:07.710Z,379
2022-09-21T19:30:08.003Z,389
2022-09-21T19:31:08.104Z,388
2022-09-21T19:33:08.348Z,384
2022-09-21T19:35:08.502Z,385
2022-09-21T19:36:07.568Z,386
2022-09-21T19:37:08.470Z,381
2022-09-21T19:38:07.740Z,377
2022-09-21T19:39:07.709Z,376
2022-09-21T19:40:08.072Z,389
2022-09-21T19:41:08.197Z,399
2022-09-21T19:43:08.368Z,398
2022-09-21T19:44:08.124Z,390
2022-09-21T19:45:08.324Z,392
2022-09-21T19:46:07.709Z,397
2022-09-21T19:48:07.638Z,403
2022-09-21T19:49:07.561Z,394
2022-09-21T19:51:07.785Z,385
2022-09-21T19:52:07.666Z,382
2022-09-21T19:53:07.552Z,383
2022-09-21T19:55:08.138Z,384
2022-09-21T19:56:08.026Z,389
2022-09-21T19:57:07.809Z,393
2022-09-21T19:58:07.686Z,386
2022-09-21T19:59:07.799Z,398
2022-09-21T20:01:08.124Z,388
2022-09-21T20:03:07.435Z,393
2022-09-21T20:04:08.316Z,386
2022-09-21T20:05:08.177Z,391
2022-09-21T20:06:08.284Z,401
2022-09-21T20:07:07.619Z,404
2022-09-21T20:08:07.670Z,391
2022-09-21T20:09:07.546Z,403
2022-09-21T20:10:08.354Z,417
2022-09-21T20:11:07.491Z,411
2022-09-21T20:12:08.290Z,399
2022-09-21T20:13:08.504Z,398
2022-09-21T20:15:08.305Z,399
2022-09-21T20:16:08.217Z,393
2022-09-21T20:17:08.195Z,396
2022-09-21T20:18:07.925Z,405
2022-09-21T20:19:07.693Z,399
2022-09-21T20:21:08.138Z,398
2022-09-21T20:22:08.083Z,401
2022-09-21T20:24:07.548Z,392
2022-09-21T20:25:07.676Z,396
2022-09-21T20:26:07.698Z,388
2022-09-21T20:28:07.994Z,384
2022-09-21T20:29:07.663Z,388
2022-09-21T20:30:07.795Z,397
2022-09-21T20:32:07.901Z,393
2022-09-21T20:33:07.970Z,374
2022-09-21T20:35:08.099Z,386
2022-09-21T20:37:08.188Z,390
2022-09-21T20:38:08.125Z,385
2022-09-21T20:40:08.200Z,395
2022-09-21T20:41:08.138Z,393
2022-09-21T20:42:08.368Z,383
2022-09-21T20:43:07.350Z,389
2022-09-21T20:44:07.987Z,392
2022-09-21T20:45:07.906Z,391
2022-09-21T20:46:08.005Z,379
2022-09-21T20:47:08.109Z,381
2022-09-21T20:48:08.292Z,387
2022-09-21T20:49:08.319Z,377
2022-09-21T20:50:07.902Z,375
2022-09-21T20:51:07.525Z,387
2022-09-21T20:52:07.516Z,391
2022-09-21T20:53:07.618Z,395
2022-09-21T20:54:07.609Z,394
2022-09-21T20:55:07.890Z,392
2022-09-21T20:56:07.847Z,397
2022-09-21T20:57:07.779Z,393
2022-09-21T20:59:07.857Z,406
2022-09-21T21:00:08.864Z,402
2022-09-21T21:02:07.963Z,396
2022-09-21T21:03:08.371Z,382
2022-09-21T21:04:07.607Z,388
2022-09-21T21:05:07.710Z,389
2022-09-21T21:06:07.772Z,391
2022-09-21T21:07:07.794Z,387
2022-09-21T21:08:07.760Z,372
2022-09-21T21:09:07.701Z,375
2022-09-21T21:10:07.769Z,383
2022-09-21T21:11:07.989Z,391
2022-09-21T21:12:08.161Z,392
2022-09-21T21:14:07.346Z,397
2022-09-21T21:15:08.459Z,398
2022-09-21T21:16:11.066Z,392
2022-09-21T21:17:08.188Z,393
2022-09-21T21:18:08.516Z,402
2022-09-21T21:20:07.534Z,395
2022-09-21T21:21:07.655Z,393
2022-09-21T21:23:08.205Z,384
2022-09-21T21:25:08.558Z,386
2022-09-21T21:26:07.511Z,390
2022-09-21T21:27:07.538Z,385
2022-09-21T21:29:07.925Z,390
2022-09-21T21:30:08.035Z,396
2022-09-21T21:31:08.255Z,392
2022-09-21T21:32:08.380Z,391
2022-09-21T21:33:07.871Z,393
2022-09-21T21:34:07.737Z,388
2022-09-21T21:35:08.511Z,400
2022-09-21T21:37:07.613Z,397
2022-09-21T21:38:07.909Z,390
2022-09-21T21:40:07.814Z,381
2022-09-21T21:41:07.754Z,394
2022-09-21T21:42:07.258Z,387
2022-09-21T21:43:07.974Z,372
2022-09-21T21:45:08.082Z,380
2022-09-21T21:46:08.120Z,389
2022-09-21T21:47:34.824Z,385
2022-09-21T21:48:07.896Z,397
2022-09-21T21:49:07.680Z,393
2022-09-21T21:50:07.464Z,386
2022-09-21T21:51:08.162Z,391
2022-09-21T21:52:08.233Z,394
2022-09-21T21:54:07.733Z,395
2022-09-21T21:55:07.701Z,394
2022-09-21T21:56:07.687Z,397
2022-09-21T21:57:07.668Z,396
2022-09-21T21:58:07.305Z,389
2022-09-21T21:59:07.984Z,387
2022-09-21T22:00:09.319Z,394
2022-09-21T22:01:07.668Z,389
2022-09-21T22:03:07.495Z,399
2022-09-21T22:05:08.070Z,391
2022-09-21T22:06:08.215Z,396
2022-09-21T22:07:08.158Z,393
2022-09-21T22:08:08.052Z,395
2022-09-21T22:09:07.777Z,391
2022-09-21T22:11:08.002Z,388
2022-09-21T22:12:07.777Z,398
2022-09-21T22:13:07.684Z,391
2022-09-21T22:14:07.312Z,393
2022-09-21T22:15:08.172Z,392
2022-09-21T22:16:07.969Z,397
2022-09-21T22:18:07.560Z,391
2022-09-21T22:19:07.920Z,395
2022-09-21T22:21:07.559Z,400
2022-09-21T22:22:07.830Z,395
2022-09-21T22:23:07.325Z,394
2022-09-21T22:24:07.841Z,390
2022-09-21T22:25:07.340Z,395
2022-09-21T22:26:07.624Z,396
2022-09-21T22:27:07.221Z,402
2022-09-21T22:28:07.726Z,401
2022-09-21T22:29:07.464Z,397
2022-09-21T22:30:08.183Z,392
2022-09-21T22:31:07.866Z,390
2022-09-21T22:32:07.608Z,397
2022-09-21T22:33:07.527Z,403
2022-09-21T22:34:08.039Z,392
2022-09-21T22:35:08.001Z,389
2022-09-21T22:37:07.691Z,405
2022-09-21T22:38:07.920Z,387
2022-09-21T22:39:07.675Z,389
2022-09-21T22:41:07.506Z,392
2022-09-21T22:42:08.096Z,397
2022-09-21T22:43:07.726Z,404
2022-09-21T22:44:07.312Z,391
2022-09-21T22:46:07.709Z,387
2022-09-21T22:47:07.768Z,384
2022-09-21T22:48:07.664Z,391
2022-09-21T22:49:08.161Z,397
2022-09-21T22:50:08.191Z,393
2022-09-21T22:51:08.063Z,390
2022-09-21T22:52:07.885Z,395
2022-09-21T22:53:08.127Z,393
2022-09-21T22:54:08.158Z,391
2022-09-21T22:56:07.920Z,387
2022-09-21T22:57:07.904Z,399
2022-09-21T22:58:07.706Z,389
2022-09-21T22:59:07.282Z,395
2022-09-21T23:00:08.401Z,388
2022-09-21T23:01:08.093Z,401
2022-09-21T23:02:08.227Z,404
2022-09-21T23:05:08.193Z,402
2022-09-21T23:06:08.095Z,398
2022-09-21T23:08:07.652Z,399
2022-09-21T23:09:08.536Z,395
2022-09-21T23:10:07.576Z,398
2022-09-21T23:11:07.429Z,399
2022-09-21T23:12:08.415Z,397
2022-09-21T23:13:08.346Z,399
2022-09-21T23:14:08.016Z,397
2022-09-21T23:15:07.871Z,398
2022-09-21T23:17:08.201Z,402
2022-09-21T23:18:08.432Z,399
2022-09-21T23:19:08.220Z,407
2022-09-21T23:21:08.314Z,399
2022-09-21T23:22:08.021Z,404
2022-09-21T23:23:07.662Z,400
2022-09-21T23:24:07.524Z,402
2022-09-21T23:26:08.143Z,396
2022-09-21T23:27:08.066Z,392
2022-09-21T23:28:07.739Z,399
2022-09-21T23:29:08.161Z,401
2022-09-21T23:32:08.219Z,406
2022-09-21T23:33:08.175Z,407
2022-09-21T23:34:15.859Z,410
2022-09-21T23:35:07.444Z,420
2022-09-21T23:36:08.058Z,417
2022-09-21T23:37:07.586Z,406
2022-09-21T23:38:07.548Z,405
2022-09-21T23:40:22.287Z,410
2022-09-21T23:41:08.010Z,403
2022-09-21T23:43:07.499Z,398
2022-09-21T23:45:08.201Z,412
2022-09-21T23:47:08.107Z,417
2022-09-21T23:48:07.748Z,420
2022-09-21T23:50:07.722Z,416
2022-09-21T23:51:07.232Z,411
2022-09-21T23:53:07.559Z,408
2022-09-21T23:54:08.169Z,411
2022-09-21T23:55:08.154Z,399
2022-09-21T23:56:07.919Z,406
2022-09-21T23:58:26.999Z,408
